Time;durP1;ratioP1;P1;durP2;ratioP2;P2;SDS_P1;SDS_P2;PMS_P1;PMS_P2;Temp;Humidity;BMP_temperature;BMP_pressure;BME280_temperature;BME280_humidity;BME280_pressure;Samples;Min_cycle;Max_cycle;Signal;HPM_P1;HPM_P2
2022/12/30 00:00:15;;;;;;;;;;;6.30;99.90;;;;;;4963855;28;19926;-91
2022/12/30 00:02:41;;;;;;;;;;;6.20;99.90;;;;;;4959381;28;19918;-89
2022/12/30 00:05:07;;;;;;;;;;;6.20;99.90;;;;;;4974528;28;19917;-89
2022/12/30 00:07:35;;;;;;;;;;;6.20;99.90;;;;;;4983404;28;19926;-90
2022/12/30 00:10:01;;;;;;;;;;;6.20;99.90;;;;;;4961074;28;19985;-90
2022/12/30 00:56:51;;;;;;;;;;;6.60;99.90;;;;;;4902302;29;20339;-90
2022/12/30 00:59:17;;;;;;;;;;;6.20;99.90;;;;;;4893691;29;19987;-90
2022/12/30 01:01:42;;;;;;;;;;;5.90;99.90;;;;;;4908578;29;20089;-89
2022/12/30 01:04:08;;;;;;;;;;;6.80;99.90;;;;;;4885839;29;19995;-89
2022/12/30 01:06:35;;;;;;;;;;;5.90;99.90;;;;;;4894734;29;19919;-89
2022/12/30 01:09:01;;;;;;;;;;;5.90;99.90;;;;;;4895789;29;19927;-91
2022/12/30 01:11:26;;;;;;;;;;;6.00;99.90;;;;;;4897165;29;19929;-90
2022/12/30 01:13:52;;;;;;;;;;;5.90;99.90;;;;;;4895736;29;20114;-89
2022/12/30 01:16:18;;;;;;;;;;;5.90;99.90;;;;;;4895015;29;19919;-89
2022/12/30 01:18:43;;;;;;;;;;;6.00;99.90;;;;;;4896347;29;19983;-89
2022/12/30 01:21:09;;;;;;;;;;;6.00;99.90;;;;;;4879129;29;20010;-90
2022/12/30 01:23:35;;;;;;;;;;;6.00;99.90;;;;;;4880373;29;20305;-90
2022/12/30 01:26:01;;;;;;;;;;;6.10;99.90;;;;;;4917445;28;20356;-89
2022/12/30 01:28:34;;;;;;;;;;;6.10;99.90;;;;;;4977340;28;20289;-89
2022/12/30 01:30:59;;;;;;;;;;;6.10;99.90;;;;;;4954959;28;20384;-90
2022/12/30 01:33:25;;;;;;;;;;;6.00;99.90;;;;;;4955172;28;19954;-90
2022/12/30 01:35:51;;;;;;;;;;;6.00;99.90;;;;;;4967251;28;19965;-90
2022/12/30 01:38:16;;;;;;;;;;;6.00;99.90;;;;;;4983390;28;20408;-89
2022/12/30 01:40:43;;;;;;;;;;;6.00;99.90;;;;;;4977522;28;19973;-91
2022/12/30 01:43:10;;;;;;;;;;;6.00;99.90;;;;;;4955928;28;19925;-90
2022/12/30 01:45:35;;;;;;;;;;;6.00;99.90;;;;;;4955557;28;19930;-90
2022/12/30 01:48:04;;;;;;;;;;;6.50;99.90;;;;;;4980271;28;20270;-89
2022/12/30 01:50:45;;;;;;;;;;;6.00;99.90;;;;;;4956122;28;19918;-89
2022/12/30 01:53:12;;;;;;;;;;;6.00;99.90;;;;;;4955583;28;19928;-90
2022/12/30 01:55:45;;;;;;;;;;;6.00;99.90;;;;;;4979955;28;19921;-89
2022/12/30 01:58:12;;;;;;;;;;;6.00;99.90;;;;;;4978687;28;19929;-90
2022/12/30 02:00:37;;;;;;;;;;;6.00;99.90;;;;;;4951096;28;19997;-89
2022/12/30 02:03:04;;;;;;;;;;;6.00;99.90;;;;;;4944842;28;20016;-89
2022/12/30 02:05:31;;;;;;;;;;;6.00;99.90;;;;;;4972778;28;19931;-90
2022/12/30 02:08:06;;;;;;;;;;;6.00;99.90;;;;;;4977716;28;19989;-90
2022/12/30 02:10:33;;;;;;;;;;;6.00;99.90;;;;;;4944223;28;20408;-89
2022/12/30 02:12:59;;;;;;;;;;;6.00;99.90;;;;;;4949570;28;19922;-90
2022/12/30 02:15:25;;;;;;;;;;;6.00;99.90;;;;;;4961721;28;19926;-90
2022/12/30 02:17:57;;;;;;;;;;;6.90;99.90;;;;;;4961168;28;20434;-90
2022/12/30 02:20:43;;;;;;;;;;;5.90;99.90;;;;;;4961868;28;19921;-89
2022/12/30 02:38:35;;;;;;;;;;;5.50;99.90;;;;;;4992361;28;19933;-89
2022/12/30 02:46:54;;;;;;;;;;;5.60;99.90;;;;;;4997852;28;19922;-90
2022/12/30 02:49:20;;;;;;;;;;;5.60;99.90;;;;;;4978100;28;19925;-90
2022/12/30 02:54:31;;;;;;;;;;;5.60;99.90;;;;;;4978281;28;19930;-89
2022/12/30 03:20:47;;;;;;;;;;;;;;;;;;;;;
2022/12/30 03:37:24;;;;;;;;;;;5.30;99.90;;;;;;4752112;30;19935;-90
2022/12/30 03:43:51;;;;;;;;;;;5.20;99.90;;;;;;4738518;30;19915;-89
2022/12/30 03:47:12;;;;;;;;;;;;;;;;;;;;;
2022/12/30 04:41:53;;;;;;;;;;;5.20;99.90;;;;;;4272789;26;20376;-87
2022/12/30 04:44:19;;;;;;;;;;;5.20;99.90;;;;;;4984914;28;19922;-87
2022/12/30 04:46:44;;;;;;;;;;;6.50;99.90;;;;;;4977460;28;19968;-87
2022/12/30 04:49:10;;;;;;;;;;;5.40;99.90;;;;;;4975471;28;19938;-87
2022/12/30 04:51:35;;;;;;;;;;;5.20;99.90;;;;;;4981237;28;19922;-87
2022/12/30 04:54:01;;;;;;;;;;;5.10;99.90;;;;;;4979349;28;19928;-87
2022/12/30 04:56:26;;;;;;;;;;;5.40;99.90;;;;;;4980217;28;19941;-87
2022/12/30 04:58:53;;;;;;;;;;;5.20;99.90;;;;;;4998353;28;19925;-86
2022/12/30 05:01:18;;;;;;;;;;;5.20;99.90;;;;;;4976071;28;19922;-87
2022/12/30 05:03:44;;;;;;;;;;;5.20;99.90;;;;;;4991573;28;20012;-87
2022/12/30 05:06:09;;;;;;;;;;;5.20;99.90;;;;;;4980398;28;20300;-88
2022/12/30 05:08:35;;;;;;;;;;;5.20;99.90;;;;;;4981127;28;19930;-88
2022/12/30 05:11:00;;;;;;;;;;;5.30;99.90;;;;;;4962689;28;19926;-88
2022/12/30 05:13:26;;;;;;;;;;;5.30;99.90;;;;;;4992632;28;19925;-87
2022/12/30 05:15:51;;;;;;;;;;;5.30;99.90;;;;;;4975898;28;20004;-88
2022/12/30 05:18:17;;;;;;;;;;;5.60;99.90;;;;;;4980589;28;19929;-88
2022/12/30 05:20:42;;;;;;;;;;;5.30;99.90;;;;;;4974323;28;19922;-87
2022/12/30 05:26:13;;;;;;;;;;;5.30;99.90;;;;;;4979050;28;19921;-88
2022/12/30 05:28:38;;;;;;;;;;;5.30;99.90;;;;;;4979744;28;20361;-88
2022/12/30 05:31:03;;;;;;;;;;;5.50;99.90;;;;;;4983881;28;19973;-87
2022/12/30 05:33:29;;;;;;;;;;;5.20;99.90;;;;;;4998767;28;19928;-87
2022/12/30 05:35:54;;;;;;;;;;;5.20;99.90;;;;;;5000898;28;19922;-88
2022/12/30 05:38:20;;;;;;;;;;;5.10;99.90;;;;;;4972859;28;19940;-88
2022/12/30 05:40:45;;;;;;;;;;;5.10;99.90;;;;;;4975345;28;19940;-88
2022/12/30 05:43:11;;;;;;;;;;;5.00;99.90;;;;;;5004683;28;19932;-87
2022/12/30 05:45:36;;;;;;;;;;;4.10;99.90;;;;;;4978483;28;19918;-87
2022/12/30 05:48:02;;;;;;;;;;;5.00;99.90;;;;;;4983969;28;19949;-87
2022/12/30 05:50:28;;;;;;;;;;;4.60;99.90;;;;;;4967248;28;19948;-87
2022/12/30 05:52:54;;;;;;;;;;;4.90;99.90;;;;;;4980116;28;20368;-87
2022/12/30 05:55:20;;;;;;;;;;;4.90;99.90;;;;;;4984646;28;19980;-89
2022/12/30 05:57:45;;;;;;;;;;;4.80;99.90;;;;;;4997129;28;19972;-87
2022/12/30 06:00:11;;;;;;;;;;;4.80;99.90;;;;;;4977549;28;19928;-87
2022/12/30 06:02:36;;;;;;;;;;;4.80;99.90;;;;;;4992574;28;20314;-87
2022/12/30 06:05:02;;;;;;;;;;;4.80;99.90;;;;;;4983487;28;19941;-86
2022/12/30 06:07:28;;;;;;;;;;;4.80;99.90;;;;;;4982104;28;20289;-87
2022/12/30 06:09:53;;;;;;;;;;;4.90;99.90;;;;;;4979445;28;19930;-88
2022/12/30 06:12:19;;;;;;;;;;;4.80;99.90;;;;;;4981056;28;19960;-88
2022/12/30 06:14:45;;;;;;;;;;;4.70;99.90;;;;;;4980329;28;19918;-87
2022/12/30 06:17:10;;;;;;;;;;;4.70;99.90;;;;;;4998120;28;20311;-86
2022/12/30 06:19:36;;;;;;;;;;;4.70;99.90;;;;;;4997653;28;19965;-88
2022/12/30 06:22:01;;;;;;;;;;;4.70;99.90;;;;;;4979750;28;19925;-87
2022/12/30 06:24:27;;;;;;;;;;;4.70;99.90;;;;;;4980716;28;19929;-87
2022/12/30 06:26:52;;;;;;;;;;;4.60;99.90;;;;;;5002328;28;19918;-87
2022/12/30 06:29:18;;;;;;;;;;;4.70;99.90;;;;;;5001664;28;19932;-87
2022/12/30 06:31:43;;;;;;;;;;;4.60;99.90;;;;;;4986192;28;19917;-87
2022/12/30 06:34:09;;;;;;;;;;;4.60;99.90;;;;;;4987384;28;19930;-88
2022/12/30 06:36:34;;;;;;;;;;;4.60;99.90;;;;;;5006615;28;19967;-87
2022/12/30 06:39:00;;;;;;;;;;;4.60;99.90;;;;;;4982716;28;20329;-87
2022/12/30 06:41:25;;;;;;;;;;;4.60;99.90;;;;;;4996443;28;19932;-87
2022/12/30 06:43:51;;;;;;;;;;;4.60;99.90;;;;;;4997559;28;19922;-87
2022/12/30 06:46:16;;;;;;;;;;;4.60;99.90;;;;;;4985461;28;19929;-87
2022/12/30 06:48:42;;;;;;;;;;;4.60;99.90;;;;;;4981674;28;19917;-86
2022/12/30 06:51:07;;;;;;;;;;;4.60;99.90;;;;;;4982177;28;20060;-88
2022/12/30 06:53:33;;;;;;;;;;;4.50;99.90;;;;;;4985420;28;19976;-87
2022/12/30 06:55:59;;;;;;;;;;;4.50;99.90;;;;;;4979911;28;19918;-88
2022/12/30 06:58:24;;;;;;;;;;;4.50;99.90;;;;;;4987200;28;19972;-87
2022/12/30 07:00:50;;;;;;;;;;;5.40;99.90;;;;;;5004577;28;19944;-88
2022/12/30 07:03:15;;;;;;;;;;;4.40;99.90;;;;;;4980156;28;19944;-87
2022/12/30 07:05:41;;;;;;;;;;;4.50;99.90;;;;;;4975964;28;19930;-88
2022/12/30 07:08:06;;;;;;;;;;;4.50;99.90;;;;;;4980877;28;20319;-87
2022/12/30 07:10:32;;;;;;;;;;;4.50;99.90;;;;;;4980507;28;19984;-85
2022/12/30 07:12:58;;;;;;;;;;;4.50;99.90;;;;;;4975760;28;19977;-88
2022/12/30 07:15:23;;;;;;;;;;;4.40;99.90;;;;;;4993508;28;19924;-89
2022/12/30 07:17:49;;;;;;;;;;;5.20;99.90;;;;;;4994630;28;20032;-95
2022/12/30 07:25:36;;;;;;;;;;;4.40;99.90;;;;;;5640161;23;20327;-88
2022/12/30 07:28:32;;;;;;;;;;;4.40;99.90;;;;;;5011416;28;19932;-93
2022/12/30 07:31:00;;;;;;;;;;;3.70;99.90;;;;;;4994563;28;20276;-94
2022/12/30 07:33:29;;;;;;;;;;;4.60;99.90;;;;;;4973962;28;19972;-93
2022/12/30 07:35:54;;;;;;;;;;;5.80;99.90;;;;;;5010652;28;19917;-91
2022/12/30 07:38:20;;;;;;;;;;;5.40;99.90;;;;;;4972182;28;20430;-90
2022/12/30 07:40:45;;;;;;;;;;;3.60;99.90;;;;;;5015090;28;19901;-91
2022/12/30 07:43:11;;;;;;;;;;;4.30;99.90;;;;;;4994022;28;19925;-85
2022/12/30 07:45:39;;;;;;;;;;;4.50;99.90;;;;;;5004909;28;19925;-92
2022/12/30 08:23:03;;;;;;;;;;;;;;;;;;;;;
2022/12/30 08:32:11;;;;;;;;;;;4.60;99.90;;;;;;5000331;28;19980;-92
2022/12/30 08:34:36;;;;;;;;;;;4.00;99.90;;;;;;4986212;28;19969;-88
2022/12/30 08:37:02;;;;;;;;;;;5.20;99.90;;;;;;4986930;28;19921;-90
2022/12/30 08:39:28;;;;;;;;;;;4.70;99.90;;;;;;4992890;28;20403;-92
2022/12/30 08:41:53;;;;;;;;;;;5.50;99.90;;;;;;4975149;28;20352;-91
2022/12/30 08:44:19;;;;;;;;;;;5.30;99.90;;;;;;5002235;28;20361;-89
2022/12/30 08:46:44;;;;;;;;;;;4.60;99.90;;;;;;4981290;28;19929;-91
2022/12/30 08:49:10;;;;;;;;;;;6.20;99.90;;;;;;5006883;28;19917;-91
2022/12/30 08:51:36;;;;;;;;;;;5.90;99.90;;;;;;5008882;28;19933;-93
2022/12/30 08:54:02;;;;;;;;;;;4.80;99.90;;;;;;4999935;28;19925;-91
2022/12/30 08:56:29;;;;;;;;;;;4.70;99.90;;;;;;4962424;28;20342;-91
2022/12/30 08:58:55;;;;;;;;;;;4.70;99.90;;;;;;4988034;28;20447;-92
2022/12/30 09:01:22;;;;;;;;;;;6.30;99.90;;;;;;5007348;28;19983;-91
2022/12/30 09:03:48;;;;;;;;;;;5.60;99.90;;;;;;4980935;28;19924;-90
2022/12/30 09:06:16;;;;;;;;;;;4.50;99.90;;;;;;4974867;28;19921;-89
2022/12/30 09:08:43;;;;;;;;;;;4.90;99.90;;;;;;4998458;28;20412;-88
2022/12/30 09:11:10;;;;;;;;;;;5.00;99.90;;;;;;4977334;28;20391;-87
2022/12/30 09:13:36;;;;;;;;;;;5.00;99.90;;;;;;5003500;28;20009;-88
2022/12/30 09:16:03;;;;;;;;;;;5.00;99.90;;;;;;4991789;28;20011;-87
2022/12/30 09:18:28;;;;;;;;;;;5.00;99.90;;;;;;4987073;28;20008;-88
2022/12/30 09:21:03;;;;;;;;;;;5.00;99.90;;;;;;4996541;23;20349;-88
2022/12/30 09:23:29;;;;;;;;;;;5.00;99.90;;;;;;4988781;28;20020;-83
2022/12/30 09:25:55;;;;;;;;;;;5.10;99.90;;;;;;4970298;28;19937;-81
2022/12/30 09:28:20;;;;;;;;;;;5.30;99.90;;;;;;4987707;28;20377;-81
2022/12/30 09:30:46;;;;;;;;;;;5.10;99.90;;;;;;4966613;28;19934;-80
2022/12/30 09:33:12;;;;;;;;;;;5.20;99.90;;;;;;4986474;28;20014;-81
2022/12/30 09:35:37;;;;;;;;;;;5.10;99.90;;;;;;4969638;28;19928;-81
2022/12/30 09:38:03;;;;;;;;;;;5.20;99.90;;;;;;4956368;28;19929;-82
2022/12/30 09:40:38;;;;;;;;;;;5.30;99.90;;;;;;4985758;28;19928;-80
2022/12/30 09:43:15;;;;;;;;;;;5.30;99.90;;;;;;4985288;28;19922;-82
2022/12/30 09:45:44;;;;;;;;;;;5.90;99.90;;;;;;4967954;28;19930;-81
2022/12/30 09:48:15;;;;;;;;;;;5.40;99.90;;;;;;4987308;28;19925;-81
2022/12/30 09:50:47;;;;;;;;;;;5.40;99.90;;;;;;4955753;28;19965;-83
2022/12/30 09:53:25;;;;;;;;;;;5.50;99.90;;;;;;4987259;28;20021;-82
2022/12/30 09:55:56;;;;;;;;;;;5.50;99.90;;;;;;4968660;28;19981;-81
2022/12/30 09:58:24;;;;;;;;;;;5.60;99.90;;;;;;4982753;28;19976;-81
2022/12/30 10:00:50;;;;;;;;;;;5.60;99.90;;;;;;4971339;28;19922;-82
2022/12/30 10:03:18;;;;;;;;;;;5.70;99.90;;;;;;4988530;28;20472;-82
2022/12/30 10:06:02;;;;;;;;;;;5.70;99.90;;;;;;4988625;28;19930;-82
2022/12/30 10:08:36;;;;;;;;;;;5.80;99.90;;;;;;4988125;28;20295;-81
2022/12/30 10:11:40;;;;;;;;;;;5.80;99.90;;;;;;4971998;28;19931;-80
2022/12/30 10:14:24;;;;;;;;;;;5.80;99.90;;;;;;4947334;29;19985;-81
2022/12/30 10:16:55;;;;;;;;;;;5.90;99.90;;;;;;4947153;28;19969;-82
2022/12/30 10:19:39;;;;;;;;;;;5.90;99.90;;;;;;4945555;28;19922;-83
2022/12/30 10:22:15;;;;;;;;;;;6.00;99.90;;;;;;4947572;28;20152;-83
2022/12/30 10:24:40;;;;;;;;;;;6.10;99.90;;;;;;4926817;29;19923;-83
2022/12/30 10:27:16;;;;;;;;;;;6.20;99.90;;;;;;4942313;28;19930;-83
2022/12/30 10:29:43;;;;;;;;;;;6.20;99.90;;;;;;4945388;29;20022;-83
2022/12/30 10:32:14;;;;;;;;;;;6.20;99.90;;;;;;4946496;29;19919;-80
2022/12/30 10:34:40;;;;;;;;;;;6.30;99.90;;;;;;4943746;28;19919;-82
2022/12/30 10:37:11;;;;;;;;;;;6.30;99.90;;;;;;4947670;29;19930;-82
2022/12/30 10:39:47;;;;;;;;;;;7.10;99.90;;;;;;4951350;28;20061;-82
2022/12/30 10:42:18;;;;;;;;;;;6.40;99.90;;;;;;4935466;28;19949;-82
2022/12/30 10:45:06;;;;;;;;;;;6.40;99.90;;;;;;4964629;28;20297;-81
2022/12/30 10:47:44;;;;;;;;;;;5.60;99.90;;;;;;4988808;28;19922;-82
2022/12/30 10:50:31;;;;;;;;;;;6.50;99.90;;;;;;4975337;28;20008;-81
2022/12/30 10:52:57;;;;;;;;;;;6.60;99.90;;;;;;4973945;28;19992;-81
2022/12/30 10:55:27;;;;;;;;;;;6.60;99.90;;;;;;4961298;28;19918;-81
2022/12/30 10:57:56;;;;;;;;;;;6.70;99.90;;;;;;4974811;28;19917;-81
2022/12/30 11:00:22;;;;;;;;;;;6.80;99.90;;;;;;4974948;28;19994;-82
2022/12/30 11:02:55;;;;;;;;;;;6.80;99.90;;;;;;4974884;28;20034;-84
2022/12/30 11:05:29;;;;;;;;;;;6.80;99.90;;;;;;4990337;28;19928;-85
2022/12/30 11:07:55;;;;;;;;;;;6.80;99.90;;;;;;4987987;28;20028;-81
2022/12/30 11:10:20;;;;;;;;;;;6.80;99.90;;;;;;4990919;28;19917;-84
2022/12/30 11:15:30;;;;;;;;;;;6.80;99.90;;;;;;4990947;28;19929;-86
2022/12/30 11:17:59;;;;;;;;;;;6.80;99.90;;;;;;4975040;28;19991;-85
2022/12/30 11:20:33;;;;;;;;;;;6.90;99.90;;;;;;4974019;28;19925;-85
2022/12/30 11:23:00;;;;;;;;;;;6.90;99.90;;;;;;4957429;28;19968;-86
2022/12/30 11:25:34;;;;;;;;;;;7.30;99.90;;;;;;4971745;28;20012;-84
2022/12/30 11:28:01;;;;;;;;;;;6.90;99.90;;;;;;4990233;28;19976;-83
2022/12/30 11:30:39;;;;;;;;;;;7.00;99.90;;;;;;4969294;28;19924;-83
2022/12/30 11:33:06;;;;;;;;;;;7.10;99.90;;;;;;4986671;28;19929;-83
2022/12/30 11:35:35;;;;;;;;;;;7.10;99.90;;;;;;4991329;28;19921;-84
2022/12/30 11:38:01;;;;;;;;;;;7.10;99.90;;;;;;4971293;28;19917;-85
2022/12/30 11:40:35;;;;;;;;;;;7.40;99.90;;;;;;4984469;28;20011;-84
2022/12/30 11:43:05;;;;;;;;;;;7.20;99.90;;;;;;4986487;28;20033;-85
2022/12/30 11:45:30;;;;;;;;;;;7.20;99.90;;;;;;4974192;28;19918;-84
2022/12/30 11:47:56;;;;;;;;;;;7.30;99.90;;;;;;4992078;28;19984;-86
2022/12/30 11:50:22;;;;;;;;;;;7.30;99.90;;;;;;4989231;28;19928;-86
2022/12/30 11:52:49;;;;;;;;;;;7.30;99.90;;;;;;4958500;28;19922;-85
2022/12/30 11:55:21;;;;;;;;;;;7.40;99.90;;;;;;4974287;28;19918;-86
2022/12/30 11:57:47;;;;;;;;;;;7.40;99.90;;;;;;4972988;28;19918;-85
2022/12/30 12:00:12;;;;;;;;;;;7.40;99.90;;;;;;4991085;28;20399;-84
2022/12/30 12:02:49;;;;;;;;;;;7.40;99.90;;;;;;4984375;28;19929;-85
2022/12/30 12:05:20;;;;;;;;;;;7.50;99.90;;;;;;4990303;28;20404;-84
2022/12/30 12:07:47;;;;;;;;;;;7.50;99.90;;;;;;4971793;28;19972;-84
2022/12/30 12:10:30;;;;;;;;;;;7.50;99.90;;;;;;4971946;28;20364;-84
2022/12/30 12:12:57;;;;;;;;;;;7.60;99.90;;;;;;4991019;28;19922;-85
2022/12/30 12:15:23;;;;;;;;;;;7.60;99.90;;;;;;4972585;28;19972;-84
2022/12/30 12:17:51;;;;;;;;;;;7.60;99.90;;;;;;4987287;28;20336;-83
2022/12/30 12:20:20;;;;;;;;;;;7.60;99.90;;;;;;4990897;28;19933;-84
2022/12/30 12:22:48;;;;;;;;;;;7.70;99.90;;;;;;4988698;28;19929;-82
2022/12/30 12:25:17;;;;;;;;;;;7.70;99.90;;;;;;4973311;28;19930;-80
2022/12/30 12:27:43;;;;;;;;;;;7.70;99.90;;;;;;4989745;28;20388;-80
2022/12/30 12:30:12;;;;;;;;;;;7.80;99.90;;;;;;4971587;28;19925;-80
2022/12/30 12:32:38;;;;;;;;;;;7.70;99.90;;;;;;4987871;28;20009;-81
2022/12/30 12:35:14;;;;;;;;;;;7.80;99.90;;;;;;4972139;28;20329;-80
2022/12/30 12:37:48;;;;;;;;;;;7.80;99.90;;;;;;4989329;28;19917;-80
2022/12/30 12:40:40;;;;;;;;;;;7.90;99.90;;;;;;4989196;28;19929;-81
2022/12/30 12:43:06;;;;;;;;;;;7.90;99.90;;;;;;4969045;28;19926;-81
2022/12/30 12:45:44;;;;;;;;;;;7.90;99.90;;;;;;4970910;28;19929;-82
2022/12/30 12:48:15;;;;;;;;;;;7.90;99.90;;;;;;4988895;28;20035;-81
2022/12/30 12:51:07;;;;;;;;;;;7.90;99.90;;;;;;4972497;28;19973;-82
2022/12/30 12:53:56;;;;;;;;;;;8.00;99.90;;;;;;4967063;28;19917;-81
2022/12/30 12:56:36;;;;;;;;;;;8.00;99.90;;;;;;4990129;28;19925;-81
2022/12/30 12:59:18;;;;;;;;;;;8.00;99.90;;;;;;4986520;28;20373;-81
2022/12/30 13:01:51;;;;;;;;;;;8.00;99.90;;;;;;4987654;28;19925;-82
2022/12/30 13:04:23;;;;;;;;;;;8.10;99.90;;;;;;4971402;28;19921;-84
2022/12/30 13:06:58;;;;;;;;;;;8.10;99.90;;;;;;4973378;28;19921;-84
2022/12/30 13:09:41;;;;;;;;;;;8.10;99.90;;;;;;4964710;28;19922;-84
2022/12/30 13:12:22;;;;;;;;;;;8.10;99.90;;;;;;4986583;28;19930;-84
2022/12/30 13:15:07;;;;;;;;;;;8.20;99.90;;;;;;4970157;28;20384;-84
2022/12/30 13:17:39;;;;;;;;;;;8.90;99.90;;;;;;4967861;28;19922;-85
2022/12/30 13:20:08;;;;;;;;;;;8.20;99.90;;;;;;4971919;28;20329;-85
2022/12/30 13:22:35;;;;;;;;;;;8.20;99.90;;;;;;4954738;28;19922;-83
2022/12/30 13:25:03;;;;;;;;;;;8.20;99.90;;;;;;4989803;28;19924;-84
2022/12/30 13:27:29;;;;;;;;;;;8.40;99.90;;;;;;4971078;28;19972;-83
2022/12/30 13:29:56;;;;;;;;;;;8.30;99.90;;;;;;4971614;28;20256;-82
2022/12/30 13:32:41;;;;;;;;;;;8.30;99.90;;;;;;4968910;28;19932;-85
2022/12/30 13:35:24;;;;;;;;;;;8.30;99.90;;;;;;4968553;28;19929;-83
2022/12/30 13:38:08;;;;;;;;;;;8.30;99.90;;;;;;4970417;28;20383;-87
2022/12/30 13:40:46;;;;;;;;;;;8.30;99.90;;;;;;4987740;28;19917;-83
2022/12/30 13:43:24;;;;;;;;;;;8.40;99.90;;;;;;4970387;28;20305;-84
2022/12/30 13:45:53;;;;;;;;;;;8.40;99.90;;;;;;4986058;28;20387;-86
2022/12/30 13:48:20;;;;;;;;;;;8.40;99.90;;;;;;4970120;28;20013;-83
2022/12/30 13:50:55;;;;;;;;;;;8.40;99.90;;;;;;4986399;28;19968;-84
2022/12/30 13:53:33;;;;;;;;;;;8.50;99.90;;;;;;4971680;28;19941;-84
2022/12/30 13:55:59;;;;;;;;;;;8.50;99.90;;;;;;4986737;28;20008;-84
2022/12/30 13:58:27;;;;;;;;;;;8.50;99.90;;;;;;4956242;28;20005;-83
2022/12/30 14:01:11;;;;;;;;;;;8.50;99.90;;;;;;4970376;28;19921;-84
2022/12/30 14:03:37;;;;;;;;;;;8.50;99.90;;;;;;4969528;28;19924;-84
2022/12/30 14:06:23;;;;;;;;;;;8.50;99.90;;;;;;4972480;28;19922;-83
2022/12/30 14:08:50;;;;;;;;;;;8.50;99.90;;;;;;4969034;28;19952;-84
2022/12/30 14:11:16;;;;;;;;;;;8.50;99.90;;;;;;4953458;28;19980;-84
2022/12/30 14:13:43;;;;;;;;;;;9.10;99.90;;;;;;4987803;28;19921;-85
2022/12/30 14:16:32;;;;;;;;;;;8.60;99.90;;;;;;4974203;28;19922;-85
2022/12/30 14:18:58;;;;;;;;;;;8.60;99.90;;;;;;4977142;28;19996;-85
2022/12/30 14:21:42;;;;;;;;;;;8.60;99.90;;;;;;4981844;28;20352;-84
2022/12/30 14:24:27;;;;;;;;;;;8.70;99.90;;;;;;4993194;28;20013;-84
2022/12/30 14:26:53;;;;;;;;;;;8.70;99.90;;;;;;4975852;28;19921;-84
2022/12/30 14:29:20;;;;;;;;;;;8.70;99.90;;;;;;4992662;28;19924;-84
2022/12/30 14:31:54;;;;;;;;;;;9.60;99.90;;;;;;4972035;28;20044;-85
2022/12/30 14:34:28;;;;;;;;;;;8.80;99.90;;;;;;4994582;28;19969;-84
2022/12/30 14:36:55;;;;;;;;;;;8.80;99.90;;;;;;4992576;28;19980;-84
2022/12/30 14:39:21;;;;;;;;;;;8.80;99.90;;;;;;4994732;28;20158;-84
2022/12/30 14:41:47;;;;;;;;;;;9.40;99.90;;;;;;4993144;28;20336;-82
2022/12/30 14:44:13;;;;;;;;;;;8.80;99.90;;;;;;4987978;28;19925;-83
2022/12/30 14:49:04;;;;;;;;;;;8.80;99.90;;;;;;4993798;28;20275;-82
2022/12/30 14:51:30;;;;;;;;;;;9.70;99.90;;;;;;4991619;28;19964;-83
2022/12/30 14:53:56;;;;;;;;;;;8.80;99.90;;;;;;4975624;28;19917;-81
2022/12/30 14:56:22;;;;;;;;;;;8.80;99.90;;;;;;4992299;28;19933;-82
2022/12/30 14:58:48;;;;;;;;;;;8.70;99.90;;;;;;4974306;28;19918;-82
2022/12/30 15:01:18;;;;;;;;;;;8.70;99.90;;;;;;4990523;28;19969;-82
2022/12/30 15:03:43;;;;;;;;;;;8.50;99.90;;;;;;4972741;28;19971;-82
2022/12/30 15:06:09;;;;;;;;;;;8.70;99.90;;;;;;4992985;28;20001;-82
2022/12/30 15:08:36;;;;;;;;;;;8.60;99.90;;;;;;4976396;28;19977;-82
2022/12/30 15:11:03;;;;;;;;;;;8.50;99.90;;;;;;4976234;28;19948;-82
2022/12/30 15:13:43;;;;;;;;;;;8.50;99.90;;;;;;4975237;28;19968;-82
2022/12/30 15:16:12;;;;;;;;;;;8.50;99.90;;;;;;4992878;28;19918;-82
2022/12/30 15:18:39;;;;;;;;;;;8.40;99.90;;;;;;4992991;28;20454;-82
2022/12/30 15:21:17;;;;;;;;;;;8.40;99.90;;;;;;4974738;28;19925;-82
2022/12/30 15:23:43;;;;;;;;;;;8.40;99.90;;;;;;4993060;28;19944;-82
2022/12/30 15:26:10;;;;;;;;;;;8.40;99.90;;;;;;4952931;28;20374;-82
2022/12/30 15:28:39;;;;;;;;;;;8.40;99.90;;;;;;4992563;28;19917;-82
2022/12/30 15:31:04;;;;;;;;;;;8.40;99.90;;;;;;4992431;28;19922;-82
2022/12/30 15:33:31;;;;;;;;;;;8.40;99.90;;;;;;4992519;28;19918;-83
2022/12/30 15:35:56;;;;;;;;;;;8.40;99.90;;;;;;4973955;28;20016;-82
2022/12/30 15:38:33;;;;;;;;;;;8.40;99.90;;;;;;4986577;28;20384;-82
2022/12/30 15:41:02;;;;;;;;;;;8.40;99.90;;;;;;4969461;28;19957;-83
2022/12/30 15:43:27;;;;;;;;;;;8.50;99.90;;;;;;4962019;28;19967;-84
2022/12/30 15:45:57;;;;;;;;;;;8.40;99.90;;;;;;4991412;28;19918;-85
2022/12/30 15:48:36;;;;;;;;;;;8.40;99.90;;;;;;4974169;28;19918;-83
2022/12/30 15:51:08;;;;;;;;;;;8.40;99.90;;;;;;4987801;28;19933;-82
2022/12/30 15:53:34;;;;;;;;;;;8.30;99.90;;;;;;4972101;28;20017;-82
2022/12/30 15:56:00;;;;;;;;;;;8.30;99.90;;;;;;4968847;28;19967;-82
2022/12/30 15:58:34;;;;;;;;;;;8.30;99.90;;;;;;4976725;28;19925;-82
2022/12/30 16:01:06;;;;;;;;;;;8.30;99.90;;;;;;4989869;28;19949;-82
2022/12/30 16:03:32;;;;;;;;;;;8.30;99.90;;;;;;4990074;28;19929;-81
2022/12/30 16:05:58;;;;;;;;;;;8.20;99.90;;;;;;4990462;28;19945;-82
2022/12/30 16:08:30;;;;;;;;;;;8.80;99.90;;;;;;4991107;28;19929;-81
2022/12/30 16:11:04;;;;;;;;;;;8.20;99.90;;;;;;4973280;28;19983;-82
2022/12/30 16:13:31;;;;;;;;;;;8.20;99.90;;;;;;4987899;28;19922;-81
2022/12/30 16:16:24;;;;;;;;;;;8.20;99.90;;;;;;4971762;28;19918;-81
2022/12/30 16:19:08;;;;;;;;;;;8.20;99.90;;;;;;4983564;28;19924;-81
2022/12/30 16:21:34;;;;;;;;;;;8.20;99.90;;;;;;4953121;28;19918;-82
2022/12/30 16:24:13;;;;;;;;;;;8.20;99.90;;;;;;4987551;28;20328;-82
2022/12/30 16:26:39;;;;;;;;;;;8.20;99.90;;;;;;4970758;28;19933;-82
2022/12/30 16:29:09;;;;;;;;;;;8.20;99.90;;;;;;4988691;28;20009;-83
2022/12/30 16:31:38;;;;;;;;;;;8.20;99.90;;;;;;4987191;28;19925;-81
2022/12/30 16:34:03;;;;;;;;;;;8.20;99.90;;;;;;4984431;28;20431;-82
2022/12/30 16:36:30;;;;;;;;;;;8.20;99.90;;;;;;4982346;28;19923;-82
2022/12/30 16:38:58;;;;;;;;;;;8.20;99.90;;;;;;4969707;28;19918;-82
2022/12/30 16:41:25;;;;;;;;;;;8.20;99.90;;;;;;4971886;28;19927;-83
2022/12/30 16:43:52;;;;;;;;;;;8.20;99.90;;;;;;4987566;28;19917;-82
2022/12/30 16:46:19;;;;;;;;;;;8.30;99.90;;;;;;4988675;28;20395;-81
2022/12/30 16:48:45;;;;;;;;;;;8.20;99.90;;;;;;4987556;28;19932;-82
2022/12/30 16:51:15;;;;;;;;;;;8.40;99.90;;;;;;4990286;28;19918;-83
2022/12/30 16:53:41;;;;;;;;;;;8.20;99.90;;;;;;4970129;28;19944;-81
2022/12/30 16:56:06;;;;;;;;;;;8.30;99.90;;;;;;4989051;28;19922;-82
2022/12/30 16:58:32;;;;;;;;;;;8.30;99.90;;;;;;4987848;28;21387;-82
2022/12/30 17:01:01;;;;;;;;;;;8.30;99.90;;;;;;4968081;28;20361;-80
2022/12/30 17:03:27;;;;;;;;;;;8.30;99.90;;;;;;4984978;28;19934;-81
2022/12/30 17:05:53;;;;;;;;;;;8.40;99.90;;;;;;4988650;28;19987;-81
2022/12/30 17:08:27;;;;;;;;;;;8.80;99.90;;;;;;4988313;28;19917;-81
2022/12/30 17:11:07;;;;;;;;;;;8.40;99.90;;;;;;4988130;28;19929;-81
2022/12/30 17:13:36;;;;;;;;;;;8.50;99.90;;;;;;4970475;28;20337;-81
2022/12/30 17:16:03;;;;;;;;;;;8.50;99.90;;;;;;4988451;28;20384;-81
2022/12/30 17:18:28;;;;;;;;;;;8.50;99.90;;;;;;4983086;28;19965;-81
2022/12/30 17:20:59;;;;;;;;;;;8.50;99.90;;;;;;4953396;28;19980;-81
2022/12/30 17:23:28;;;;;;;;;;;8.50;99.90;;;;;;4971369;28;19922;-81
2022/12/30 17:25:53;;;;;;;;;;;8.50;99.90;;;;;;4967740;28;19983;-81
2022/12/30 17:28:21;;;;;;;;;;;8.60;99.90;;;;;;4971396;28;19921;-82
2022/12/30 17:30:47;;;;;;;;;;;8.60;99.90;;;;;;4988408;28;20380;-82
2022/12/30 17:33:12;;;;;;;;;;;8.70;99.90;;;;;;4987833;28;19921;-82
2022/12/30 17:35:38;;;;;;;;;;;8.70;99.90;;;;;;4970807;28;20008;-82
2022/12/30 17:38:05;;;;;;;;;;;8.70;99.90;;;;;;4988894;28;19917;-82
2022/12/30 17:40:30;;;;;;;;;;;8.70;99.90;;;;;;4986438;28;19918;-83
2022/12/30 17:42:57;;;;;;;;;;;8.70;99.90;;;;;;4969906;28;19926;-82
2022/12/30 17:45:24;;;;;;;;;;;8.80;99.90;;;;;;4987247;28;19917;-82
2022/12/30 17:47:50;;;;;;;;;;;8.70;99.90;;;;;;4988281;28;19917;-81
2022/12/30 17:50:17;;;;;;;;;;;8.80;99.90;;;;;;4987246;28;19937;-81
2022/12/30 17:52:46;;;;;;;;;;;8.80;99.90;;;;;;4987377;28;19949;-81
2022/12/30 17:55:12;;;;;;;;;;;8.80;99.90;;;;;;4971544;28;19984;-81
2022/12/30 17:57:37;;;;;;;;;;;9.10;99.90;;;;;;4987001;28;19926;-81
2022/12/30 18:00:05;;;;;;;;;;;8.90;99.90;;;;;;4966361;28;20469;-81
2022/12/30 18:02:31;;;;;;;;;;;9.00;99.90;;;;;;4953211;28;19926;-81
2022/12/30 18:04:56;;;;;;;;;;;9.00;99.90;;;;;;4970032;28;20398;-81
2022/12/30 18:07:22;;;;;;;;;;;9.40;99.90;;;;;;4988078;28;19918;-83
2022/12/30 18:09:47;;;;;;;;;;;9.10;99.90;;;;;;4986798;28;19928;-80
2022/12/30 18:12:13;;;;;;;;;;;9.10;99.90;;;;;;4986589;28;19922;-81
2022/12/30 18:14:39;;;;;;;;;;;9.10;99.90;;;;;;4986307;28;20009;-81
2022/12/30 18:17:05;;;;;;;;;;;9.20;99.90;;;;;;4984928;28;20020;-82
2022/12/30 18:19:33;;;;;;;;;;;9.30;99.90;;;;;;4969991;28;19918;-81
2022/12/30 18:21:59;;;;;;;;;;;9.30;99.90;;;;;;4964052;28;19918;-81